Time,TemperatureF,DewpointF,PressureIn,WindDirection,WindDirectionDegrees,WindSpeedMPH,WindSpeedGustMPH,Humidity,HourlyPrecipIn,Conditions,Clouds,dailyrainin,SoftwareType,DateUTC
2013-06-03 00:59:00,67.3,67.3,29.94,WSW,252,0.0,0.0,100,0.00,,,0.00,Meteorologica,2013-06-03 04:59:00,
2013-06-03 01:00:00,68.5,62.7,30.03,NNE,22,0.0,0.0,81,0.00,,,0.00,Meteorologica,2013-06-03 05:00:00,
2013-06-03 01:01:00,68.5,62.8,30.03,NNE,22,0.0,0.0,81,0.00,,,0.00,Meteorologica,2013-06-03 05:01:00,
2013-06-03 01:02:00,68.4,62.7,30.03,NNE,22,0.0,0.0,81,0.00,,,0.00,Meteorologica,2013-06-03 05:02:00,
2013-06-03 01:03:00,68.4,62.7,30.03,NNE,22,0.0,0.0,81,0.00,,,0.00,Meteorologica,2013-06-03 05:03:00,
2013-06-03 01:04:00,67.2,67.2,29.94,WSW,252,0.0,0.0,100,0.00,,,0.00,Meteorologica,2013-06-03 05:04:00,
2013-06-03 01:05:00,68.4,62.8,30.03,NNE,22,0.0,0.0,82,0.00,,,0.00,Meteorologica,2013-06-03 05:05:00,
2013-06-03 01:06:00,68.2,62.6,30.03,NNE,22,0.0,0.0,82,0.00,,,0.00,Meteorologica,2013-06-03 05:06:00,
2013-06-03 01:07:00,68.3,62.8,30.03,NNE,22,0.0,0.0,82,0.00,,,0.00,Meteorologica,2013-06-03 05:07:00,
2013-06-03 01:08:00,68.2,62.7,30.03,NNE,22,0.0,0.0,82,0.00,,,0.00,Meteorologica,2013-06-03 05:08:00,
2013-06-03 01:09:00,67.4,67.4,29.94,WSW,252,0.0,0.0,100,0.00,,,0.00,Meteorologica,2013-06-03 05:09:00,
2013-06-03 01:10:00,68.1,62.7,30.03,NNE,22,0.0,0.0,82,0.00,,,0.00,Meteorologica,2013-06-03 05:10:00,
2013-06-03 01:11:00,68.1,62.8,30.03,NNE,22,0.0,0.0,82,0.00,,,0.00,Meteorologica,2013-06-03 05:11:00,
2013-06-03 01:12:00,68.0,62.7,30.03,NNE,22,0.0,0.0,82,0.00,,,0.00,Meteorologica,2013-06-03 05:12:00,
2013-06-03 01:13:00,68.0,62.7,30.03,NNE,22,0.0,0.0,82,0.00,,,0.00,Meteorologica,2013-06-03 05:13:00,
2013-06-03 01:14:00,68.1,62.8,30.03,NNE,22,0.0,0.0,83,0.00,,,0.00,Meteorologica,2013-06-03 05:14:00,
2013-06-03 01:15:00,67.3,67.3,29.94,WSW,252,0.0,0.0,100,0.00,,,0.00,Meteorologica,2013-06-03 05:15:00,
2013-06-03 01:16:00,68.0,62.8,30.03,NNE,22,0.0,0.0,83,0.00,,,0.00,Meteorologica,2013-06-03 05:16:00,
2013-06-03 01:17:00,68.0,62.9,30.03,NNE,22,0.0,0.0,83,0.00,,,0.00,Meteorologica,2013-06-03 05:17:00,
2013-06-03 01:18:00,68.0,63.0,30.03,NNE,22,0.0,0.0,83,0.00,,,0.00,Meteorologica,2013-06-03 05:18:00,
2013-06-03 01:19:00,67.9,63.0,30.03,NNE,22,0.0,0.0,84,0.00,,,0.00,Meteorologica,2013-06-03 05:19:00,
2013-06-03 01:20:00,67.2,67.2,29.94,WSW,252,0.0,0.0,100,0.00,,,0.00,Meteorologica,2013-06-03 05:20:00,
2013-06-03 01:21:00,67.8,63.1,30.03,NNE,22,0.0,0.0,84,0.00,,,0.00,Meteorologica,2013-06-03 05:21:00,
2013-06-03 01:22:00,67.8,63.3,30.03,NNE,22,0.0,0.0,85,0.00,,,0.00,Meteorologica,2013-06-03 05:22:00,
2013-06-03 01:23:00,67.7,63.3,30.03,NNE,22,0.0,0.0,85,0.00,,,0.00,Meteorologica,2013-06-03 05:23:00,
2013-06-03 01:24:00,67.7,63.3,30.03,NNE,22,0.0,0.0,85,0.00,,,0.00,Meteorologica,2013-06-03 05:24:00,
2013-06-03 01:25:00,67.1,67.1,29.94,WSW,252,0.0,0.0,100,0.00,,,0.00,Meteorologica,2013-06-03 05:25:00,
2013-06-03 01:26:00,67.7,63.6,30.03,NNE,22,0.0,0.0,86,0.00,,,0.00,Meteorologica,2013-06-03 05:26:00,
2013-06-03 01:27:00,67.6,63.7,30.03,NNE,22,0.0,0.0,87,0.00,,,0.00,Meteorologica,2013-06-03 05:27:00,
2013-06-03 01:28:00,67.5,63.7,30.03,NNE,22,0.0,0.0,87,0.00,,,0.00,Meteorologica,2013-06-03 05:28:00,
2013-06-03 01:29:00,67.5,64.0,30.03,NNE,22,0.0,0.0,88,0.00,,,0.00,Meteorologica,2013-06-03 05:29:00,
2013-06-03 01:30:00,67.0,67.0,29.94,WSW,252,0.0,0.0,100,0.00,,,0.00,Meteorologica,2013-06-03 05:30:00,
2013-06-03 01:31:00,67.4,64.7,30.03,NNE,22,0.0,0.0,91,0.00,,,0.00,Meteorologica,2013-06-03 05:31:00,
2013-06-03 01:32:00,67.3,65.1,30.03,NNE,22,0.0,0.0,92,0.00,,,0.00,Meteorologica,2013-06-03 05:32:00,
2013-06-03 01:33:00,67.3,65.5,30.03,NNE,22,0.0,0.0,94,0.00,,,0.00,Meteorologica,2013-06-03 05:33:00,
2013-06-03 01:34:00,67.3,65.6,30.03,NNE,22,0.0,0.0,94,0.00,,,0.00,Meteorologica,2013-06-03 05:34:00,
2013-06-03 01:35:00,67.3,65.7,30.03,NNE,22,0.0,0.0,94,0.00,,,0.00,Meteorologica,2013-06-03 05:35:00,
2013-06-03 01:36:00,66.8,66.8,29.94,WSW,252,0.0,0.0,100,0.00,,,0.00,Meteorologica,2013-06-03 05:36:00,
2013-06-03 01:37:00,67.2,65.9,30.03,NNE,22,0.0,0.0,95,0.00,,,0.00,Meteorologica,2013-06-03 05:37:00,
2013-06-03 01:38:00,67.1,65.9,30.03,NNE,22,0.0,0.0,95,0.00,,,0.00,Meteorologica,2013-06-03 05:38:00,
2013-06-03 01:39:00,67.0,65.9,30.03,NNE,22,0.0,0.0,96,0.00,,,0.00,Meteorologica,2013-06-03 05:39:00,
2013-06-03 01:40:00,67.0,66.0,30.03,NNE,22,0.0,0.0,96,0.00,,,0.00,Meteorologica,2013-06-03 05:40:00,
2013-06-03 01:41:00,67.0,67.0,29.94,WSW,252,0.0,0.0,100,0.00,,,0.00,Meteorologica,2013-06-03 05:41:00,
2013-06-03 01:42:00,66.9,66.3,30.03,NNE,22,0.0,0.0,97,0.00,,,0.00,Meteorologica,2013-06-03 05:42:00,
2013-06-03 01:43:00,66.8,66.2,30.03,NNE,22,0.0,0.0,98,0.00,,,0.00,Meteorologica,2013-06-03 05:43:00,
2013-06-03 01:44:00,66.8,66.3,30.03,NNE,22,0.0,0.0,98,0.00,,,0.00,Meteorologica,2013-06-03 05:44:00,
2013-06-03 01:45:00,66.7,66.5,30.03,NNE,22,0.0,0.0,99,0.00,,,0.00,Meteorologica,2013-06-03 05:45:00,
2013-06-03 01:46:00,66.6,66.5,30.03,NNE,22,0.0,0.0,99,0.00,,,0.00,Meteorologica,2013-06-03 05:46:00,
2013-06-03 01:47:00,66.9,66.9,29.94,WSW,252,0.0,0.0,100,0.00,,,0.00,Meteorologica,2013-06-03 05:47:00,
2013-06-03 01:48:00,66.3,66.3,30.03,NNE,22,0.0,0.0,100,0.00,,,0.00,Meteorologica,2013-06-03 05:48:00,
2013-06-03 01:49:00,66.3,66.3,30.03,NNE,22,0.0,0.0,100,0.00,,,0.00,Meteorologica,2013-06-03 05:49:00,
2013-06-03 01:50:00,66.4,66.4,30.02,NNE,22,0.0,0.0,100,0.00,,,0.00,Meteorologica,2013-06-03 05:50:00,
2013-06-03 01:51:00,66.3,66.3,30.02,NNE,22,0.0,0.0,100,0.00,,,0.00,Meteorologica,2013-06-03 05:51:00,
2013-06-03 01:52:00,66.9,66.9,29.95,WSW,252,0.0,0.0,100,0.00,,,0.00,Meteorologica,2013-06-03 05:52:00,
2013-06-03 01:53:00,66.1,66.1,30.02,NNE,22,0.0,0.0,100,0.00,,,0.00,Meteorologica,2013-06-03 05:53:00,
2013-06-03 01:54:00,66.1,66.1,30.02,NNE,22,0.0,0.0,100,0.00,,,0.00,Meteorologica,2013-06-03 05:54:00,
2013-06-03 01:55:00,66.0,66.0,30.02,NNE,22,0.0,0.0,100,0.00,,,0.00,Meteorologica,2013-06-03 05:55:00,
2013-06-03 01:56:00,65.9,65.9,30.02,NNE,22,0.0,0.0,100,0.00,,,0.00,Meteorologica,2013-06-03 05:56:00,
2013-06-03 01:57:00,66.9,66.9,29.95,WSW,252,0.0,0.0,100,0.00,,,0.00,Meteorologica,2013-06-03 05:57:00,
2013-06-03 01:58:00,65.9,65.9,30.02,NNE,22,0.0,0.0,100,0.00,,,0.00,Meteorologica,2013-06-03 05:58:00,
2013-06-03 01:59:00,65.8,65.8,30.02,NNE,22,0.0,0.0,100,0.00,,,0.00,Meteorologica,2013-06-03 05:59:00,
2013-06-03 02:02:00,66.7,66.7,29.95,WSW,252,0.0,0.0,100,0.00,,,0.00,Meteorologica,2013-06-03 06:02:00,
2013-06-03 02:07:00,66.7,66.7,29.94,WSW,252,0.0,0.0,100,0.00,,,0.00,Meteorologica,2013-06-03 06:07:00,
2013-06-03 02:12:00,66.6,66.6,29.94,WSW,252,0.0,0.0,100,0.00,,,0.00,Meteorologica,2013-06-03 06:12:00,
2013-06-03 02:18:00,66.7,66.7,29.94,WSW,252,0.0,0.0,100,0.00,,,0.00,Meteorologica,2013-06-03 06:18:00,
2013-06-03 02:23:00,66.7,66.7,29.95,WSW,252,0.0,0.0,100,0.00,,,0.00,Meteorologica,2013-06-03 06:23:00,
2013-06-03 02:28:00,66.6,66.6,29.95,WSW,252,0.0,0.0,100,0.00,,,0.00,Meteorologica,2013-06-03 06:28:00,
2013-06-03 02:33:00,66.6,66.6,29.95,WSW,252,0.0,0.0,100,0.00,,,0.00,Meteorologica,2013-06-03 06:33:00,
2013-06-03 02:38:00,66.7,66.7,29.95,WSW,252,0.0,0.0,100,0.00,,,0.00,Meteorologica,2013-06-03 06:38:00,
2013-06-03 02:43:00,66.6,66.6,29.95,WSW,252,0.0,0.0,100,0.00,,,0.00,Meteorologica,2013-06-03 06:43:00,
2013-06-03 02:48:00,66.8,66.8,29.95,WSW,252,0.0,0.0,100,0.00,,,0.00,Meteorologica,2013-06-03 06:48:00,
2013-06-03 02:53:00,66.8,66.8,29.95,WSW,252,0.0,0.0,100,0.00,,,0.00,Meteorologica,2013-06-03 06:53:00,
2013-06-03 02:58:00,66.5,66.5,29.95,WSW,252,0.0,0.0,100,0.00,,,0.00,Meteorologica,2013-06-03 06:58:00,
2013-06-03 03:03:00,66.3,66.3,29.95,WSW,252,0.0,0.0,100,0.00,,,0.00,Meteorologica,2013-06-03 07:03:00,
2013-06-03 03:09:00,66.4,66.4,29.95,WSW,252,0.0,0.0,100,0.00,,,0.00,Meteorologica,2013-06-03 07:09:00,
2013-06-03 03:14:00,66.2,66.2,29.95,WSW,252,0.0,0.0,100,0.00,,,0.00,Meteorologica,2013-06-03 07:14:00,
2013-06-03 03:19:00,66.2,66.2,29.95,WSW,252,0.0,0.0,100,0.00,,,0.00,Meteorologica,2013-06-03 07:19:00,
2013-06-03 03:24:00,66.2,66.2,29.94,WSW,252,0.0,0.0,100,0.00,,,0.00,Meteorologica,2013-06-03 07:24:00,
2013-06-03 03:29:00,66.2,66.2,29.94,WSW,252,0.0,0.0,100,0.00,,,0.00,Meteorologica,2013-06-03 07:29:00,
2013-06-03 03:34:00,66.1,66.1,29.94,WSW,252,0.0,0.0,100,0.00,,,0.00,Meteorologica,2013-06-03 07:34:00,
2013-06-03 03:39:00,66.3,66.3,29.94,WSW,252,0.0,0.0,100,0.00,,,0.00,Meteorologica,2013-06-03 07:39:00,
2013-06-03 03:45:00,66.3,66.3,29.94,WSW,252,0.0,0.0,100,0.00,,,0.00,Meteorologica,2013-06-03 07:45:00,
2013-06-03 03:50:00,66.1,66.1,29.94,WSW,252,0.0,0.0,100,0.00,,,0.00,Meteorologica,2013-06-03 07:50:00,
2013-06-03 03:55:00,66.0,66.0,29.94,WSW,252,0.0,0.0,100,0.00,,,0.00,Meteorologica,2013-06-03 07:55:00,
2013-06-03 04:00:00,66.0,66.0,29.94,WSW,252,0.0,0.0,100,0.00,,,0.00,Meteorologica,2013-06-03 08:00:00,
2013-06-03 04:05:00,65.9,65.9,29.94,WSW,252,0.0,0.0,100,0.00,,,0.00,Meteorologica,2013-06-03 08:05:00,
2013-06-03 04:10:00,66.1,66.1,29.94,WSW,252,0.0,0.0,100,0.00,,,0.00,Meteorologica,2013-06-03 08:10:00,
2013-06-03 04:15:00,66.0,66.0,29.94,WSW,252,0.0,0.0,100,0.00,,,0.00,Meteorologica,2013-06-03 08:15:00,
2013-06-03 04:20:00,65.9,65.9,29.94,WSW,252,0.0,0.0,100,0.00,,,0.00,Meteorologica,2013-06-03 08:20:00,
2013-06-03 04:25:00,65.8,65.8,29.94,WSW,252,0.0,0.0,100,0.00,,,0.00,Meteorologica,2013-06-03 08:25:00,
2013-06-03 04:30:00,65.8,65.8,29.94,WSW,252,0.0,0.0,100,0.00,,,0.00,Meteorologica,2013-06-03 08:30:00,
2013-06-03 04:35:00,65.7,65.7,29.94,WSW,252,0.0,0.0,100,0.00,,,0.00,Meteorologica,2013-06-03 08:35:00,
2013-06-03 04:41:00,65.7,65.7,29.94,WSW,252,0.0,0.0,100,0.00,,,0.00,Meteorologica,2013-06-03 08:41:00,
2013-06-03 04:46:00,65.7,65.7,29.94,WSW,252,0.0,0.0,100,0.00,,,0.00,Meteorologica,2013-06-03 08:46:00,
2013-06-03 04:51:00,65.5,65.5,29.94,WSW,252,0.0,0.0,100,0.00,,,0.00,Meteorologica,2013-06-03 08:51:00,
2013-06-03 04:56:00,65.4,65.4,29.94,WSW,252,0.0,0.0,100,0.00,,,0.00,Meteorologica,2013-06-03 08:56:00,
2013-06-03 05:01:00,65.3,65.3,29.94,WSW,252,0.0,0.0,100,0.00,,,0.00,Meteorologica,2013-06-03 09:01:00,
2013-06-03 05:06:00,65.3,65.3,29.94,WSW,252,0.0,0.0,100,0.00,,,0.00,Meteorologica,2013-06-03 09:06:00,
2013-06-03 05:12:00,65.2,65.2,29.94,WSW,252,0.0,0.0,100,0.00,,,0.00,Meteorologica,2013-06-03 09:12:00,
2013-06-03 05:17:00,65.2,65.2,29.94,WSW,252,0.0,0.0,100,0.00,,,0.00,Meteorologica,2013-06-03 09:17:00,
2013-06-03 05:22:00,65.3,65.3,29.94,WSW,252,0.0,0.0,100,0.00,,,0.00,Meteorologica,2013-06-03 09:22:00,
2013-06-03 05:27:00,65.3,65.3,29.94,WSW,252,0.0,0.0,100,0.00,,,0.00,Meteorologica,2013-06-03 09:27:00,
2013-06-03 05:32:00,65.2,65.2,29.94,WSW,252,0.0,0.0,100,0.00,,,0.00,Meteorologica,2013-06-03 09:32:00,
2013-06-03 05:38:00,65.2,65.2,29.94,WSW,252,0.0,0.0,100,0.00,,,0.00,Meteorologica,2013-06-03 09:38:00,
2013-06-03 05:43:00,65.0,65.0,29.94,WSW,252,0.0,0.0,100,0.00,,,0.00,Meteorologica,2013-06-03 09:43:00,
2013-06-03 05:48:00,65.1,65.1,29.94,WSW,252,0.0,0.0,100,0.00,,,0.00,Meteorologica,2013-06-03 09:48:00,
2013-06-03 05:53:00,64.9,64.9,29.94,WSW,252,0.0,0.0,100,0.00,,,0.00,Meteorologica,2013-06-03 09:53:00,
2013-06-03 05:58:00,64.9,64.9,29.94,WSW,252,0.0,0.0,100,0.00,,,0.00,Meteorologica,2013-06-03 09:58:00,
2013-06-03 06:04:00,64.9,64.9,29.94,WSW,252,0.0,0.0,100,0.00,,,0.00,Meteorologica,2013-06-03 10:04:00,
2013-06-03 06:09:00,65.0,65.0,29.95,WSW,252,0.0,0.0,100,0.00,,,0.00,Meteorologica,2013-06-03 10:09:00,
2013-06-03 06:14:00,65.0,65.0,29.95,WSW,252,0.0,0.0,100,0.00,,,0.00,Meteorologica,2013-06-03 10:14:00,
2013-06-03 06:19:00,64.9,64.9,29.95,WSW,252,0.0,0.0,100,0.00,,,0.00,Meteorologica,2013-06-03 10:19:00,
2013-06-03 06:24:00,64.9,64.9,29.95,WSW,252,0.0,0.0,100,0.00,,,0.00,Meteorologica,2013-06-03 10:24:00,
2013-06-03 06:29:00,64.9,64.9,29.96,WSW,252,0.0,0.0,100,0.00,,,0.00,Meteorologica,2013-06-03 10:29:00,
2013-06-03 06:35:00,65.2,65.2,29.96,WSW,252,0.0,0.0,100,0.00,,,0.00,Meteorologica,2013-06-03 10:35:00,
2013-06-03 06:40:00,65.2,65.2,29.96,WSW,252,0.0,0.0,100,0.00,,,0.00,Meteorologica,2013-06-03 10:40:00,
2013-06-03 06:45:00,65.2,65.2,29.96,WSW,252,0.0,0.0,100,0.00,,,0.00,Meteorologica,2013-06-03 10:45:00,
2013-06-03 06:50:00,65.4,65.4,29.96,WSW,252,0.0,0.0,100,0.00,,,0.00,Meteorologica,2013-06-03 10:50:00,
2013-06-03 06:56:00,65.2,65.2,29.96,WSW,252,0.0,0.0,100,0.00,,,0.00,Meteorologica,2013-06-03 10:56:00,
2013-06-03 07:01:00,65.4,65.4,29.96,WSW,252,0.0,0.0,100,0.00,,,0.00,Meteorologica,2013-06-03 11:01:00,
2013-06-03 07:06:00,65.3,65.3,29.96,WSW,252,0.0,0.0,100,0.00,,,0.00,Meteorologica,2013-06-03 11:06:00,
2013-06-03 07:11:00,65.7,65.7,29.96,WSW,252,0.0,0.0,100,0.00,,,0.00,Meteorologica,2013-06-03 11:11:00,
2013-06-03 07:16:00,65.7,65.7,29.96,WSW,252,0.0,0.0,100,0.00,,,0.00,Meteorologica,2013-06-03 11:16:00,
2013-06-03 07:22:00,65.7,65.7,29.96,WSW,252,0.0,0.0,100,0.00,,,0.00,Meteorologica,2013-06-03 11:22:00,
2013-06-03 07:27:00,65.7,65.7,29.96,WSW,252,0.0,0.0,100,0.00,,,0.00,Meteorologica,2013-06-03 11:27:00,
2013-06-03 07:32:00,65.9,65.9,29.96,WSW,252,0.0,0.0,100,0.00,,,0.00,Meteorologica,2013-06-03 11:32:00,
2013-06-03 07:37:00,66.1,66.1,29.97,WSW,252,0.0,0.0,100,0.00,,,0.00,Meteorologica,2013-06-03 11:37:00,
2013-06-03 07:42:00,66.2,66.2,29.97,WSW,252,0.0,0.0,100,0.00,,,0.00,Meteorologica,2013-06-03 11:42:00,
2013-06-03 07:47:00,66.2,66.2,29.97,WSW,252,0.0,0.0,100,0.00,,,0.00,Meteorologica,2013-06-03 11:47:00,
2013-06-03 07:52:00,66.4,66.4,29.97,WSW,252,0.0,0.0,100,0.00,,,0.00,Meteorologica,2013-06-03 11:52:00,
2013-06-03 07:58:00,66.4,66.4,29.97,WSW,252,0.0,0.0,100,0.00,,,0.00,Meteorologica,2013-06-03 11:58:00,
2013-06-03 08:03:00,66.5,66.5,29.98,WSW,252,0.0,0.0,100,0.00,,,0.00,Meteorologica,2013-06-03 12:03:00,
2013-06-03 08:08:00,66.6,66.6,29.98,WSW,252,0.0,0.0,100,0.00,,,0.00,Meteorologica,2013-06-03 12:08:00,
2013-06-03 08:13:00,66.6,66.6,29.98,WSW,252,0.0,0.0,100,0.00,,,0.00,Meteorologica,2013-06-03 12:13:00,
2013-06-03 08:19:00,66.7,66.7,29.98,WSW,252,0.0,0.0,100,0.00,,,0.00,Meteorologica,2013-06-03 12:19:00,
2013-06-03 08:24:00,66.7,66.7,29.98,WSW,252,0.0,0.0,100,0.00,,,0.00,Meteorologica,2013-06-03 12:24:00,
2013-06-03 08:29:00,66.8,66.8,29.99,WSW,252,0.0,0.0,100,0.00,,,0.00,Meteorologica,2013-06-03 12:29:00,
2013-06-03 08:35:00,66.8,66.8,29.99,WSW,252,0.0,0.0,100,0.00,,,0.00,Meteorologica,2013-06-03 12:35:00,
2013-06-03 08:40:00,66.8,66.8,29.99,WSW,252,0.0,0.0,100,0.00,,,0.00,Meteorologica,2013-06-03 12:40:00,
2013-06-03 08:45:00,66.7,66.7,29.99,WSW,252,0.0,0.0,100,0.00,,,0.00,Meteorologica,2013-06-03 12:45:00,
2013-06-03 08:50:00,66.7,66.7,29.99,WSW,252,0.0,0.0,100,0.00,,,0.00,Meteorologica,2013-06-03 12:50:00,
2013-06-03 08:55:00,66.6,66.6,29.99,WSW,252,0.0,0.0,100,0.00,,,0.00,Meteorologica,2013-06-03 12:55:00,
2013-06-03 09:00:00,66.8,66.8,29.99,WSW,252,0.0,0.0,100,0.00,,,0.00,Meteorologica,2013-06-03 13:00:00,
2013-06-03 09:07:00,66.7,66.7,29.99,WSW,252,0.0,0.0,100,0.00,,,0.00,Meteorologica,2013-06-03 13:07:00,
2013-06-03 09:12:00,66.6,66.6,30.00,WSW,252,0.0,0.0,100,0.00,,,0.00,Meteorologica,2013-06-03 13:12:00,
2013-06-03 09:17:00,66.7,66.7,30.00,WSW,252,0.0,0.0,100,0.00,,,0.00,Meteorologica,2013-06-03 13:17:00,
2013-06-03 09:22:00,66.8,66.8,30.00,WSW,252,0.0,0.0,100,0.00,,,0.00,Meteorologica,2013-06-03 13:22:00,
2013-06-03 09:27:00,66.8,66.8,30.00,WSW,252,0.0,0.0,100,0.00,,,0.00,Meteorologica,2013-06-03 13:27:00,
2013-06-03 09:33:00,66.9,66.9,30.00,WSW,252,0.0,0.0,100,0.00,,,0.00,Meteorologica,2013-06-03 13:33:00,
2013-06-03 09:38:00,67.2,67.2,30.00,WSW,252,0.0,0.0,100,0.00,,,0.00,Meteorologica,2013-06-03 13:38:00,
2013-06-03 09:43:00,67.1,67.1,30.00,WSW,252,0.0,0.0,100,0.00,,,0.00,Meteorologica,2013-06-03 13:43:00,
2013-06-03 09:48:00,67.4,67.4,30.00,WSW,252,0.0,0.0,100,0.00,,,0.00,Meteorologica,2013-06-03 13:48:00,
2013-06-03 09:53:00,67.5,67.5,30.00,WSW,252,0.0,0.0,100,0.00,,,0.00,Meteorologica,2013-06-03 13:53:00,
2013-06-03 09:59:00,67.9,67.9,30.01,WSW,252,0.0,0.0,100,0.00,,,0.00,Meteorologica,2013-06-03 13:59:00,
2013-06-03 10:04:00,68.0,68.0,30.01,WSW,252,0.0,0.0,100,0.00,,,0.00,Meteorologica,2013-06-03 14:04:00,
2013-06-03 10:09:00,68.1,68.1,30.00,WSW,252,0.0,0.0,100,0.00,,,0.00,Meteorologica,2013-06-03 14:09:00,
2013-06-03 10:14:00,68.2,68.2,30.01,WSW,252,0.0,0.0,100,0.00,,,0.00,Meteorologica,2013-06-03 14:14:00,
2013-06-03 10:19:00,68.3,68.3,30.01,WSW,252,0.0,0.0,100,0.00,,,0.00,Meteorologica,2013-06-03 14:19:00,
2013-06-03 10:24:00,68.3,68.3,30.01,WSW,252,0.0,0.0,100,0.00,,,0.00,Meteorologica,2013-06-03 14:24:00,
2013-06-03 10:29:00,68.5,68.5,30.01,WSW,252,0.0,0.0,100,0.00,,,0.00,Meteorologica,2013-06-03 14:29:00,
2013-06-03 10:34:00,68.4,68.4,30.01,WSW,252,0.0,0.0,100,0.00,,,0.00,Meteorologica,2013-06-03 14:34:00,
2013-06-03 10:40:00,68.9,68.9,30.01,WSW,252,0.0,0.0,100,0.00,,,0.00,Meteorologica,2013-06-03 14:40:00,
2013-06-03 10:45:00,68.8,68.8,30.01,WSW,252,0.0,0.0,100,0.00,,,0.00,Meteorologica,2013-06-03 14:45:00,
2013-06-03 10:50:00,69.1,69.1,30.01,WSW,252,0.0,0.0,100,0.00,,,0.00,Meteorologica,2013-06-03 14:50:00,
2013-06-03 10:55:00,69.1,69.1,30.02,WSW,252,0.0,0.0,100,0.00,,,0.00,Meteorologica,2013-06-03 14:55:00,
2013-06-03 11:00:00,69.1,69.1,30.02,WSW,252,0.0,0.0,100,0.00,,,0.00,Meteorologica,2013-06-03 15:00:00,
2013-06-03 11:06:00,69.5,69.5,30.02,WSW,252,0.0,0.0,100,0.00,,,0.00,Meteorologica,2013-06-03 15:06:00,
2013-06-03 11:11:00,69.6,69.6,30.01,WSW,252,0.0,0.0,100,0.00,,,0.00,Meteorologica,2013-06-03 15:11:00,
2013-06-03 11:16:00,69.8,69.8,30.01,WSW,252,0.0,0.0,100,0.00,,,0.00,Meteorologica,2013-06-03 15:16:00,
2013-06-03 11:21:00,70.2,70.2,30.01,WSW,252,0.0,0.0,100,0.00,,,0.00,Meteorologica,2013-06-03 15:21:00,
2013-06-03 12:00:00,72.6,72.7,30.01,ENE,60,0.0,0.0,100,0.00,,,0.00,Meteorologica,2013-06-03 16:00:00,
2013-06-03 12:05:00,73.2,73.2,30.01,ENE,60,0.0,0.0,100,0.00,,,0.00,Meteorologica,2013-06-03 16:05:00,
2013-06-03 12:10:00,73.6,73.6,30.01,ESE,107,1.2,4.5,100,0.00,,,0.00,Meteorologica,2013-06-03 16:10:00,
2013-06-03 12:15:00,73.8,73.8,30.01,East,87,0.0,1.4,100,0.00,,,0.00,Meteorologica,2013-06-03 16:15:00,
2013-06-03 12:20:00,74.2,74.2,30.01,ENE,73,0.0,0.9,100,0.00,,,0.00,Meteorologica,2013-06-03 16:20:00,
2013-06-03 12:25:00,74.3,72.9,30.01,ENE,73,0.0,0.0,95,0.00,,,0.00,Meteorologica,2013-06-03 16:25:00,
2013-06-03 12:30:00,74.8,72.9,30.01,East,89,1.4,3.2,93,0.00,,,0.00,Meteorologica,2013-06-03 16:30:00,
2013-06-03 12:36:00,75.1,70.8,30.01,ENE,67,0.0,1.6,86,0.00,,,0.00,Meteorologica,2013-06-03 16:36:00,
2013-06-03 12:41:00,75.2,71.0,30.00,NNE,27,1.2,3.2,86,0.00,,,0.00,Meteorologica,2013-06-03 16:41:00,
2013-06-03 12:46:00,75.2,68.0,30.00,NNE,18,0.0,2.7,78,0.00,,,0.00,Meteorologica,2013-06-03 16:46:00,
2013-06-03 12:51:00,75.4,68.9,30.00,NNE,22,0.7,4.4,80,0.00,,,0.00,Meteorologica,2013-06-03 16:51:00,
2013-06-03 12:56:00,75.7,68.4,30.00,NNE,26,0.4,1.9,77,0.00,,,0.00,Meteorologica,2013-06-03 16:56:00,
2013-06-03 13:01:00,76.0,68.7,30.00,NE,35,0.0,1.8,77,0.00,,,0.00,Meteorologica,2013-06-03 17:01:00,
2013-06-03 13:06:00,76.0,67.9,29.99,NNE,16,2.8,4.7,75,0.00,,,0.00,Meteorologica,2013-06-03 17:06:00,
2013-06-03 13:11:00,76.4,66.1,29.99,ESE,107,0.0,3.8,70,0.00,,,0.00,Meteorologica,2013-06-03 17:11:00,
2013-06-03 13:17:00,76.9,67.7,29.99,ESE,117,0.8,3.0,72,0.00,,,0.00,Meteorologica,2013-06-03 17:17:00,
2013-06-03 13:22:00,77.3,69.4,29.98,ESE,122,0.0,3.2,76,0.00,,,0.00,Meteorologica,2013-06-03 17:22:00,
2013-06-03 13:27:00,77.5,67.2,29.98,ESE,122,0.0,2.0,70,0.00,,,0.00,Meteorologica,2013-06-03 17:27:00,
2013-06-03 13:32:00,77.5,68.3,29.98,NNE,33,0.6,2.5,72,0.00,,,0.00,Meteorologica,2013-06-03 17:32:00,
2013-06-03 13:37:00,77.2,66.0,29.98,NNE,18,0.0,1.4,67,0.00,,,0.00,Meteorologica,2013-06-03 17:37:00,
2013-06-03 13:42:00,77.5,66.7,29.98,WNW,296,0.0,3.2,68,0.00,,,0.00,Meteorologica,2013-06-03 17:42:00,
2013-06-03 13:47:00,77.7,66.4,29.98,NNE,33,1.8,4.3,67,0.00,,,0.00,Meteorologica,2013-06-03 17:47:00,
2013-06-03 13:52:00,77.9,65.4,29.98,North,5,1.7,2.3,65,0.00,,,0.00,Meteorologica,2013-06-03 17:52:00,
2013-06-03 13:57:00,78.0,65.0,29.98,NE,39,0.0,2.6,63,0.00,,,0.00,Meteorologica,2013-06-03 17:57:00,
2013-06-03 14:02:00,78.2,65.1,29.97,North,350,1.2,5.0,63,0.00,,,0.00,Meteorologica,2013-06-03 18:02:00,
2013-06-03 14:07:00,78.7,65.2,29.97,ESE,105,0.7,3.2,62,0.00,,,0.00,Meteorologica,2013-06-03 18:07:00,
2013-06-03 14:12:00,78.5,65.7,29.97,NW,309,1.7,3.6,64,0.00,,,0.00,Meteorologica,2013-06-03 18:12:00,
2013-06-03 14:17:00,78.7,65.6,29.97,NNW,331,0.1,5.9,63,0.00,,,0.00,Meteorologica,2013-06-03 18:17:00,
2013-06-03 14:22:00,79.1,64.5,29.97,WNW,297,0.0,2.9,60,0.00,,,0.00,Meteorologica,2013-06-03 18:22:00,
2013-06-03 14:27:00,79.2,64.2,29.96,NE,40,1.0,4.3,59,0.00,,,0.00,Meteorologica,2013-06-03 18:27:00,
2013-06-03 14:32:00,79.4,65.2,29.96,NE,50,1.6,2.1,61,0.00,,,0.00,Meteorologica,2013-06-03 18:32:00,
2013-06-03 14:37:00,79.3,63.9,29.96,NNE,26,0.0,2.3,58,0.00,,,0.00,Meteorologica,2013-06-03 18:37:00,
2013-06-03 14:42:00,79.1,64.9,29.96,NNE,26,0.0,0.0,61,0.00,,,0.00,Meteorologica,2013-06-03 18:42:00,
2013-06-03 14:47:00,78.8,65.2,29.96,WNW,300,1.1,0.0,62,0.00,,,0.00,Meteorologica,2013-06-03 18:47:00,
2013-06-03 14:52:00,78.7,64.7,29.95,West,276,0.0,6.0,61,0.00,,,0.00,Meteorologica,2013-06-03 18:52:00,
2013-06-03 14:57:00,78.5,64.7,29.95,NE,36,1.3,3.8,61,0.00,,,0.00,Meteorologica,2013-06-03 18:57:00,
2013-06-03 15:02:00,78.5,63.6,29.95,ENE,66,1.7,2.2,59,0.00,,,0.00,Meteorologica,2013-06-03 19:02:00,
2013-06-03 15:07:00,78.4,63.7,29.95,NNE,19,0.0,3.5,60,0.00,,,0.00,Meteorologica,2013-06-03 19:07:00,
2013-06-03 15:12:00,78.9,64.3,29.95,East,81,1.2,0.0,60,0.00,,,0.00,Meteorologica,2013-06-03 19:12:00,
2013-06-03 15:18:00,79.1,64.0,29.95,SW,221,0.0,4.9,59,0.00,,,0.00,Meteorologica,2013-06-03 19:18:00,
2013-06-03 15:23:00,78.9,64.1,29.95,NE,49,0.1,0.0,60,0.00,,,0.00,Meteorologica,2013-06-03 19:23:00,
2013-06-03 15:28:00,78.7,63.6,29.95,East,100,0.0,1.0,58,0.00,,,0.00,Meteorologica,2013-06-03 19:28:00,
2013-06-03 15:33:00,78.2,63.0,29.95,NE,36,0.8,0.8,59,0.00,,,0.00,Meteorologica,2013-06-03 19:33:00,
2013-06-03 15:38:00,78.2,63.8,29.95,NNE,25,0.7,2.4,61,0.00,,,0.00,Meteorologica,2013-06-03 19:38:00,
2013-06-03 15:43:00,78.2,63.4,29.94,SE,129,0.0,2.5,60,0.00,,,0.00,Meteorologica,2013-06-03 19:43:00,
2013-06-03 15:48:00,78.3,62.6,29.94,WNW,296,0.9,3.7,58,0.00,,,0.00,Meteorologica,2013-06-03 19:48:00,
2013-06-03 15:53:00,78.4,64.3,29.94,NW,313,1.7,2.5,61,0.00,,,0.00,Meteorologica,2013-06-03 19:53:00,
2013-06-03 15:58:00,78.4,63.3,29.94,NW,306,0.0,3.7,59,0.00,,,0.00,Meteorologica,2013-06-03 19:58:00,
2013-06-03 16:03:00,78.3,63.4,29.94,NW,306,0.0,1.2,59,0.00,,,0.00,Meteorologica,2013-06-03 20:03:00,
2013-06-03 16:08:00,78.2,63.3,29.94,NW,306,0.0,0.0,59,0.00,,,0.00,Meteorologica,2013-06-03 20:08:00,
2013-06-03 16:13:00,78.3,65.1,29.94,NW,306,0.0,0.0,63,0.00,,,0.00,Meteorologica,2013-06-03 20:13:00,
2013-06-03 16:18:00,78.4,64.3,29.94,NW,306,0.0,0.0,61,0.00,,,0.00,Meteorologica,2013-06-03 20:18:00,
2013-06-03 16:23:00,78.4,64.7,29.94,NW,306,0.0,0.0,62,0.00,,,0.00,Meteorologica,2013-06-03 20:23:00,
2013-06-03 16:28:00,78.7,64.4,29.94,NW,306,0.0,0.0,61,0.00,,,0.00,Meteorologica,2013-06-03 20:28:00,
2013-06-03 16:34:00,78.4,63.2,29.93,NW,306,0.0,0.0,59,0.00,,,0.00,Meteorologica,2013-06-03 20:34:00,
2013-06-03 16:39:00,78.7,63.9,29.93,NW,306,0.0,0.0,60,0.00,,,0.00,Meteorologica,2013-06-03 20:39:00,
2013-06-03 16:44:00,78.3,64.2,29.93,NW,306,0.0,0.0,61,0.00,,,0.00,Meteorologica,2013-06-03 20:44:00,
2013-06-03 16:49:00,78.3,64.1,29.93,NW,306,0.0,0.0,61,0.00,,,0.00,Meteorologica,2013-06-03 20:49:00,
2013-06-03 16:54:00,78.2,63.3,29.93,SSW,193,0.4,1.6,59,0.00,,,0.00,Meteorologica,2013-06-03 20:54:00,
2013-06-03 16:59:00,78.4,63.7,29.93,NE,40,0.0,2.0,60,0.00,,,0.00,Meteorologica,2013-06-03 20:59:00,
2013-06-03 17:04:00,78.7,65.4,29.93,NE,40,0.0,0.5,63,0.00,,,0.00,Meteorologica,2013-06-03 21:04:00,
2013-06-03 17:09:00,78.7,63.3,29.93,West,259,0.0,2.7,58,0.00,,,0.00,Meteorologica,2013-06-03 21:09:00,
2013-06-03 17:14:00,78.7,63.9,29.93,West,259,0.0,0.0,60,0.00,,,0.00,Meteorologica,2013-06-03 21:14:00,
2013-06-03 17:19:00,78.5,63.7,29.93,West,259,0.0,0.0,59,0.00,,,0.00,Meteorologica,2013-06-03 21:19:00,
2013-06-03 17:24:00,78.7,63.7,29.93,North,4,0.0,1.8,59,0.00,,,0.00,Meteorologica,2013-06-03 21:24:00,
2013-06-03 17:29:00,78.4,62.4,29.93,North,8,0.0,1.3,57,0.00,,,0.00,Meteorologica,2013-06-03 21:29:00,
2013-06-03 17:34:00,78.4,62.4,29.93,North,8,0.0,0.0,57,0.00,,,0.00,Meteorologica,2013-06-03 21:34:00,
2013-06-03 17:40:00,78.1,61.6,29.93,North,8,0.0,0.0,56,0.00,,,0.00,Meteorologica,2013-06-03 21:40:00,
2013-06-03 17:45:00,78.0,62.1,29.93,North,10,0.7,0.0,57,0.00,,,0.00,Meteorologica,2013-06-03 21:45:00,
2013-06-03 17:50:00,77.8,62.1,29.93,North,8,0.0,2.3,58,0.00,,,0.00,Meteorologica,2013-06-03 21:50:00,
2013-06-03 17:55:00,77.7,61.6,29.93,North,8,0.0,0.0,57,0.00,,,0.00,Meteorologica,2013-06-03 21:55:00,
2013-06-03 18:00:00,77.4,61.8,29.93,North,8,0.0,0.0,58,0.00,,,0.00,Meteorologica,2013-06-03 22:00:00,
2013-06-03 18:05:00,77.3,61.9,29.93,North,8,0.0,0.0,58,0.00,,,0.00,Meteorologica,2013-06-03 22:05:00,
2013-06-03 18:10:00,77.3,62.1,29.93,NNE,22,0.0,2.4,58,0.00,,,0.00,Meteorologica,2013-06-03 22:10:00,
2013-06-03 18:15:00,77.3,62.5,29.93,NNE,22,0.0,0.0,59,0.00,,,0.00,Meteorologica,2013-06-03 22:15:00,
2013-06-03 18:20:00,77.1,62.5,29.93,NNE,22,0.0,0.0,60,0.00,,,0.00,Meteorologica,2013-06-03 22:20:00,
2013-06-03 18:26:00,76.9,61.9,29.93,NNE,22,0.0,0.0,59,0.00,,,0.00,Meteorologica,2013-06-03 22:26:00,
2013-06-03 18:31:00,76.9,62.7,29.93,NNE,22,0.0,0.0,61,0.00,,,0.00,Meteorologica,2013-06-03 22:31:00,
2013-06-03 18:36:00,77.1,62.2,29.93,NNE,22,0.0,0.0,59,0.00,,,0.00,Meteorologica,2013-06-03 22:36:00,
2013-06-03 18:41:00,76.9,61.4,29.93,NNE,22,0.0,0.0,58,0.00,,,0.00,Meteorologica,2013-06-03 22:41:00,
2013-06-03 18:47:00,77.2,62.4,29.93,NNE,22,0.0,0.0,59,0.00,,,0.00,Meteorologica,2013-06-03 22:47:00,
2013-06-03 18:52:00,77.2,62.6,29.93,NNE,22,0.0,0.0,60,0.00,,,0.00,Meteorologica,2013-06-03 22:52:00,
2013-06-03 18:57:00,77.2,62.2,29.93,NNE,22,0.0,0.0,59,0.00,,,0.00,Meteorologica,2013-06-03 22:57:00,
2013-06-03 19:02:00,77.3,61.7,29.93,NNE,22,0.0,0.0,58,0.00,,,0.00,Meteorologica,2013-06-03 23:02:00,
2013-06-03 19:07:00,77.4,61.8,29.93,NNE,22,0.0,0.0,58,0.00,,,0.00,Meteorologica,2013-06-03 23:07:00,
2013-06-03 19:12:00,77.2,61.1,29.93,NNE,22,0.0,0.0,57,0.00,,,0.00,Meteorologica,2013-06-03 23:12:00,
2013-06-03 19:17:00,77.2,60.3,29.93,NNE,22,0.0,0.0,55,0.00,,,0.00,Meteorologica,2013-06-03 23:17:00,
2013-06-03 19:22:00,77.2,59.9,29.93,NNE,22,0.0,0.0,54,0.00,,,0.00,Meteorologica,2013-06-03 23:22:00,
2013-06-03 19:27:00,77.3,61.1,29.93,NNE,22,0.0,0.0,57,0.00,,,0.00,Meteorologica,2013-06-03 23:27:00,
2013-06-03 19:32:00,77.1,60.9,29.94,NNE,22,0.0,0.0,57,0.00,,,0.00,Meteorologica,2013-06-03 23:32:00,
2013-06-03 19:37:00,77.1,61.8,29.94,NNE,22,0.0,0.0,59,0.00,,,0.00,Meteorologica,2013-06-03 23:37:00,
2013-06-03 19:43:00,76.7,61.2,29.94,NNE,22,0.0,0.0,58,0.00,,,0.00,Meteorologica,2013-06-03 23:43:00,
2013-06-03 19:48:00,76.3,60.9,29.94,NNE,22,0.0,0.0,58,0.00,,,0.00,Meteorologica,2013-06-03 23:48:00,
2013-06-03 19:53:00,76.3,61.2,29.94,NNE,22,0.0,0.0,59,0.00,,,0.00,Meteorologica,2013-06-03 23:53:00,
2013-06-03 19:58:00,76.0,61.2,29.94,NNE,22,0.0,0.0,60,0.00,,,0.00,Meteorologica,2013-06-03 23:58:00,
2013-06-03 20:03:00,75.8,61.1,29.95,NNE,22,0.0,0.0,60,0.00,,,0.00,Meteorologica,2013-06-04 00:03:00,
2013-06-03 20:08:00,75.6,61.2,29.95,NNE,22,0.0,0.0,60,0.00,,,0.00,Meteorologica,2013-06-04 00:08:00,
2013-06-03 20:13:00,75.3,61.2,29.95,NNE,22,0.0,0.0,61,0.00,,,0.00,Meteorologica,2013-06-04 00:13:00,
2013-06-03 20:18:00,75.2,61.3,29.95,NNE,22,0.0,0.0,61,0.00,,,0.00,Meteorologica,2013-06-04 00:18:00,
2013-06-03 20:24:00,75.0,61.3,29.95,NNE,22,0.0,0.0,61,0.00,,,0.00,Meteorologica,2013-06-04 00:24:00,
2013-06-03 20:29:00,75.1,61.5,29.95,NNE,22,0.0,0.0,62,0.00,,,0.00,Meteorologica,2013-06-04 00:29:00,
2013-06-03 20:34:00,74.8,61.5,29.95,NNE,22,0.0,0.0,62,0.00,,,0.00,Meteorologica,2013-06-04 00:34:00,
2013-06-03 20:39:00,74.5,61.1,29.95,NNE,22,0.0,0.0,62,0.00,,,0.00,Meteorologica,2013-06-04 00:39:00,
2013-06-03 20:44:00,74.2,61.3,29.95,NNE,22,0.0,0.0,63,0.00,,,0.00,Meteorologica,2013-06-04 00:44:00,
2013-06-03 20:49:00,74.1,61.8,29.96,NNE,22,0.0,0.0,65,0.00,,,0.00,Meteorologica,2013-06-04 00:49:00,
2013-06-03 20:54:00,73.9,61.5,29.96,NNE,22,0.0,0.0,64,0.00,,,0.00,Meteorologica,2013-06-04 00:54:00,
2013-06-03 20:59:00,73.9,61.5,29.96,NNE,22,0.0,0.0,64,0.00,,,0.00,Meteorologica,2013-06-04 00:59:00,
2013-06-03 21:04:00,73.6,61.7,29.96,NNE,22,0.0,0.0,65,0.00,,,0.00,Meteorologica,2013-06-04 01:04:00,
2013-06-03 21:09:00,73.3,62.1,29.96,NNE,22,0.0,0.0,67,0.00,,,0.00,Meteorologica,2013-06-04 01:09:00,
2013-06-03 21:15:00,72.8,63.0,29.97,NNE,22,0.0,0.0,71,0.00,,,0.00,Meteorologica,2013-06-04 01:15:00,
2013-06-03 21:20:00,72.4,62.2,29.97,NNE,22,0.0,0.0,69,0.00,,,0.00,Meteorologica,2013-06-04 01:20:00,
2013-06-03 21:25:00,72.2,61.9,29.97,NNE,22,0.0,0.0,69,0.00,,,0.00,Meteorologica,2013-06-04 01:25:00,
2013-06-03 21:30:00,71.9,62.2,29.97,NNE,22,0.0,0.0,71,0.00,,,0.00,Meteorologica,2013-06-04 01:30:00,
2013-06-03 21:35:00,71.6,62.7,29.98,NNE,22,0.0,0.0,73,0.00,,,0.00,Meteorologica,2013-06-04 01:35:00,
2013-06-03 21:40:00,71.3,64.1,29.98,NNE,22,0.0,0.0,77,0.00,,,0.00,Meteorologica,2013-06-04 01:40:00,
2013-06-03 21:45:00,71.1,63.5,29.98,NNE,22,0.0,0.0,76,0.00,,,0.00,Meteorologica,2013-06-04 01:45:00,
2013-06-03 21:50:00,70.9,64.4,29.98,NNE,22,0.0,0.0,79,0.00,,,0.00,Meteorologica,2013-06-04 01:50:00,
2013-06-03 21:55:00,70.8,65.7,29.98,NNE,22,0.0,0.0,84,0.00,,,0.00,Meteorologica,2013-06-04 01:55:00,
2013-06-03 22:00:00,70.5,65.1,29.99,NNE,22,0.0,0.0,83,0.00,,,0.00,Meteorologica,2013-06-04 02:00:00,
2013-06-03 22:05:00,70.1,65.7,29.99,NNE,22,0.0,0.0,85,0.00,,,0.00,Meteorologica,2013-06-04 02:05:00,
2013-06-03 22:10:00,69.9,64.9,30.00,NNE,22,0.0,0.0,84,0.00,,,0.00,Meteorologica,2013-06-04 02:10:00,
2013-06-03 22:15:00,69.8,64.9,30.00,NNE,22,0.0,0.0,84,0.00,,,0.00,Meteorologica,2013-06-04 02:15:00,
2013-06-03 22:21:00,69.8,63.2,30.00,NNE,22,0.0,0.0,78,0.00,,,0.00,Meteorologica,2013-06-04 02:21:00,
2013-06-03 22:26:00,70.0,62.1,30.00,NNE,22,0.0,0.0,75,0.00,,,0.00,Meteorologica,2013-06-04 02:26:00,
2013-06-03 22:31:00,70.3,62.4,30.01,NNE,22,0.0,0.0,75,0.00,,,0.00,Meteorologica,2013-06-04 02:31:00,
2013-06-03 22:36:00,70.2,62.2,30.01,NNE,22,0.0,0.0,75,0.00,,,0.00,Meteorologica,2013-06-04 02:36:00,
2013-06-03 22:41:00,70.4,62.3,30.01,NNE,22,0.0,0.0,75,0.00,,,0.00,Meteorologica,2013-06-04 02:41:00,
2013-06-03 22:46:00,70.2,62.2,30.02,NNE,22,0.0,0.0,75,0.00,,,0.00,Meteorologica,2013-06-04 02:46:00,
2013-06-03 22:51:00,70.3,62.6,30.01,NNE,22,0.0,0.0,76,0.00,,,0.00,Meteorologica,2013-06-04 02:51:00,
2013-06-03 22:56:00,70.1,62.6,30.02,NNE,22,0.0,0.0,76,0.00,,,0.00,Meteorologica,2013-06-04 02:56:00,
2013-06-03 23:01:00,70.0,62.1,30.02,NNE,22,0.0,0.0,75,0.00,,,0.00,Meteorologica,2013-06-04 03:01:00,
2013-06-03 23:07:00,69.8,61.7,30.02,NNE,22,0.0,0.0,75,0.00,,,0.00,Meteorologica,2013-06-04 03:07:00,
2013-06-03 23:12:00,69.8,61.6,30.02,NNE,22,0.0,0.0,74,0.00,,,0.00,Meteorologica,2013-06-04 03:12:00,
2013-06-03 23:17:00,69.8,61.8,30.02,NNE,22,0.0,0.0,75,0.00,,,0.00,Meteorologica,2013-06-04 03:17:00,
2013-06-03 23:22:00,69.7,61.8,30.02,NNE,22,0.0,0.0,75,0.00,,,0.00,Meteorologica,2013-06-04 03:22:00,
2013-06-03 23:27:00,69.6,62.6,30.02,NNE,22,0.0,0.0,78,0.00,,,0.00,Meteorologica,2013-06-04 03:27:00,
2013-06-03 23:32:00,69.4,63.5,30.02,NNE,22,0.0,0.0,81,0.00,,,0.00,Meteorologica,2013-06-04 03:32:00,
2013-06-03 23:37:00,69.3,63.3,30.02,NNE,22,0.0,0.0,80,0.00,,,0.00,Meteorologica,2013-06-04 03:37:00,
2013-06-03 23:42:00,69.1,62.7,30.02,NNE,22,0.0,0.0,79,0.00,,,0.00,Meteorologica,2013-06-04 03:42:00,
2013-06-03 23:47:00,68.9,62.9,30.02,NNE,22,0.0,0.0,81,0.00,,,0.00,Meteorologica,2013-06-04 03:47:00,
2013-06-03 23:52:00,68.8,62.9,30.02,NNE,22,0.0,0.0,81,0.00,,,0.00,Meteorologica,2013-06-04 03:52:00,
2013-06-03 23:58:00,68.4,62.5,30.03,NNE,22,0.0,0.0,81,0.00,,,0.00,Meteorologica,2013-06-04 03:58:00,